ADDS METAR Data INFO
IDs: Format: Raw Decoded Include TAF

Data at: 2234 UTC 11 Dec 2017

KMKG 112155Z 14004KT 8SM FEW045 OVC060 M01/M04 A2973 RMK AO2 SLP074 T10111044
KMKG 112118Z 14006KT 8SM SCT021 OVC060 M01/M04 A2972 RMK AO2 T10111044
KMKG 112055Z 13010KT 7SM OVC019 M01/M04 A2971 RMK AO2 SLP070 60000 T10111039 56026
KMKG 111955Z 14008KT 7SM OVC015 M01/M04 A2973 RMK AO2 SLP076 T10111044
KMKG 111945Z 14008KT 7SM OVC015 M01/M04 A2974 RMK AO2 T10111044
KMKG 111855Z 15009KT 7SM OVC013 M01/M04 A2976 RMK AO2 SNE41 SLP086 P0000 T10111044
KMKG 111807Z 15010KT 5SM -SN OVC010 M01/M04 A2978 RMK AO2 P0000 T10111039
KMKG 111755Z 15011KT 2 1/2SM -SN BR OVC008 M01/M03 A2979 RMK AO2 SFC VIS 5 FZRAE25 SLP097 4/004 933006 P0002 60010 I1000 I6000 T10111033 11011 21044 57034
KMKG 111736Z 15009KT 2 1/2SM -SN BR OVC006 M01/M03 A2981 RMK AO2 SFC VIS 4 FZRAE25 P0002 I1000 T10111028
KMKG 111726Z 16010KT 1SM R32/P6000FT -SN BR OVC006 M01/M03 A2982 RMK AO2 SFC VIS 3 FZRAE25 P0002 I1000 T10111028
KMKG 111655Z 14011KT 1SM R32/P6000FT -FZRASN BR OVC008 M01/M03 A2984 RMK AO2 SFC VIS 1 3/4 FZDZE08FZRAB08 SLP114 P0003 I1000 T10111033
KMKG 111650Z 13012KT 1SM R32/P6000FT -FZRASN BR BKN008 OVC012 M01/M03 A2985 RMK AO2 SFC VIS 2 FZDZE08FZRAB08 P0003 I1000
KMKG 111632Z 13010KT 1SM R32/P6000FT -FZRASN BR OVC010 M01/M03 A2986 RMK AO2 FZDZE08FZRAB08 P0003 I1000 T10111033
KMKG 111609Z 13010KT 1SM R32/4000VP6000FT -FZRASN BR OVC008 M02/M04 A2989 RMK AO2 SFC VIS 1 1/4 FZDZE08FZRAB08 P0002 I1000 T10171039
KMKG 111555Z 12010KT 1SM R32/5000VP6000FT -FZDZSN BR BKN007 OVC010 M02/M04 A2989 RMK AO2 SFC VIS 1 1/4 FZDZB38 SLP131 P0001 I1000 T10221039
KMKG 111553Z 12010KT 1SM R32/5000VP6000FT -FZDZSN BR SCT005 OVC010 M02/M04 A2990 RMK AO2 SFC VIS 1 1/4 FZDZB38 P0001 I1000
KMKG 111539Z 12008KT 1SM R32/P6000FT -FZDZSN BR BKN010 BKN015 OVC022 M02/M04 A2990 RMK AO2 SFC VIS 1 3/4 FZDZB38 P0001 I1000 T10221044
KMKG 111533Z 12009KT 1SM R32/6000VP6000FT -SN BR BKN010 BKN015 OVC022 M02/M04 A2990 RMK AO2 SFC VIS 1 3/4 P0001 T10221044
KMKG 111524Z 12008KT 1SM R32/P6000FT -SN BR SCT010 BKN015 OVC025 M03/M04 A2991 RMK AO2 SFC VIS 1 3/4 CIG 010 RWY 14 P0000 T10281044
KMKG 111455Z 12008KT 1SM R32/P6000FT -SN BR BKN011 OVC022 M03/M05 A2992 RMK AO2 SFC VIS 1 1/4 SLP139 P0003 60004 T10331050 58012
KMKG 111445Z 15006KT 1SM R32/6000VP6000FT -SN BR OVC011 M03/M05 A2992 RMK AO2 P0002 T10331050
KMKG 111422Z 15007KT 3/4SM R32/5000VP6000FT -SN BR BKN013 BKN018 OVC029 M03/M06 A2993 RMK AO2 TWR VIS 2 1/2 P0001 T10331056
KMKG 111415Z 14009KT 3/4SM R32/5500VP6000FT -SN BR SCT013 BKN018 OVC030 M03/M06 A2992 RMK AO2 TWR VIS 2 1/2 P0001 T10331056
KMKG 111355Z 13009KT 1 1/4SM -SN BR FEW015 BKN019 OVC035 M04/M06 A2993 RMK AO2 TWR VIS 2 1/2 SLP145 P0001 T10391061
KMKG 111330Z 14009KT 1SM R32/5500VP6000FT -SN BR BKN021 OVC028 M04/M06 A2994 RMK AO2 TWR VIS 2 1/2 P0001 T10391061
KMKG 111316Z 14008KT 2 1/2SM -SN SCT021 BKN028 OVC048 M04/M07 A2995 RMK AO2 SFC VIS 4 P0000 T10391067
KMKG 111255Z 13008KT 2 1/2SM -SN BR OVC039 M04/M07 A2995 RMK AO2 SFC VIS 4 SNB05 SLP150 P0000 T10441067
KMKG 111251Z 13008KT 2 1/2SM -SN BR OVC037 M04/M07 A2995 RMK AO2 SFC VIS 3 SNB05 P0000
KMKG 111214Z 11008KT 2 1/2SM -SN BKN028 OVC034 M04/M08 A2997 RMK AO2 SFC VIS 3 SNB05 P0000 T10391083
KMKG 111155Z 11007KT 10SM OVC030 M04/M09 A2999 RMK AO2 SLP163 4/005 T10391089 11033 21039 57009
KMKG 111131Z 11007KT 10SM OVC030 M04/M08 A2999 RMK AO2 T10391083
KMKG 111055Z 11006KT 10SM OVC026 M04/M08 A3000 RMK AO2 SLP167 T10391083
KMKG 110955Z AUTO 09004KT 10SM OVC032 M04/M08 A3000 RMK AO2 SLP168 T10391083
KMKG 110855Z AUTO 11004KT 10SM OVC030 M04/M07 A3002 RMK AO2 SLP172 T10391067 58004
KMKG 110755Z AUTO 07003KT 10SM OVC032 M03/M07 A3004 RMK AO2 SLP180 T10331072
KMKG 110655Z AUTO 07006KT 10SM OVC030 M03/M08 A3003 RMK AO2 SLP177 T10331078
KMKG 110555Z AUTO 06003KT 10SM OVC036 M03/M07 A3003 RMK AO2 SLP177 60000 T10281072 11006 21028 50005
KMKG 110455Z AUTO 04007KT 10SM OVC032 M03/M07 A3003 RMK AO2 SLP179 T10281072 400001033
KMKG 110355Z 03008KT 10SM OVC036 M01/M07 A3003 RMK AO2 SNE47 SLP176 LAST P0000 T10111072
KMKG 110255Z 33010KT 9SM -SN OVC034 M01/M07 A3001 RMK AO2 SLP171 P0000 60000 T10111072 51008
KMKG 110211Z 34010KT 9SM -SN BKN030 OVC035 M01/M07 A3001 RMK AO2 P0000 T10111067
KMKG 110155Z 33008KT 9SM -SN OVC029 M02/M07 A3001 RMK AO2 SLP170 P0000 T10171067
KMKG 110153Z 32007KT 9SM -SN OVC029 M02/M07 A3001 RMK AO2 P0000
KMKG 110120Z 33003KT 9SM -SN OVC031 M02/M07 A3000 RMK AO2 P0000 T10171067
KMKG 110055Z 00000KT 9SM -SN OVC029 M02/M07 A2999 RMK AO2 SLP164 P0000 T10171067
KMKG 102355Z 36003KT 9SM -SN OVC025 M02/M07 A2998 RMK AO2 SNB47 SLP160 4/005 P0000 60000 T10221072 11006 21022 51033
KMKG 102255Z 35008KT 10SM FEW019 OVC027 M02/M07 A2995 RMK AO2 SNE2158 SLP151 P0000 T10171072
KMKG 102155Z 35007KT 9SM -SN BKN019 OVC025 M02/M06 A2991 RMK AO2 SLP137 P0000 T10171061
KMKG 102055Z 33012KT 9SM -SN OVC017 M01/M06 A2988 RMK AO2 SLP126 P0000 60000 T10111056 53013
KMKG 101955Z 30008KT 9SM -SN OVC015 M01/M06 A2986 RMK AO2 SLP119 P0000 T10111056
KMKG 101855Z 30008KT 9SM -SN OVC019 M01/M06 A2984 RMK AO2 SLP112 P0000 T10061056
KMKG 101755Z 27009KT 9SM -SN OVC021 M01/M06 A2984 RMK AO2 SLP112 4/005 933005 P0000 60000 T10061056 10000 21028 58009
KMKG 101655Z 27010KT 9SM -SN OVC021 M01/M06 A2985 RMK AO2 SLP116 P0000 T10061056
KMKG 101555Z 24015KT 9SM -SN OVC021 M01/M06 A2986 RMK AO2 SLP119 SNB36 P0000 T10061056
KMKG 101455Z 24013KT 10SM SCT023 BKN028 OVC034 M01/M06 A2987 RMK AO2 SLP122 60000 T10061061 56008
KMKG 101355Z 24012G18KT 10SM OVC021 M01/M06 A2988 RMK AO2 SLP126 T10111061
KMKG 101255Z 23011KT 10SM SCT021 BKN025 OVC046 M02/M07 A2988 RMK AO2 SNE09 SLP125 P0000 T10221072
KMKG 101218Z 24009KT 10SM FEW021 BKN026 OVC085 M03/M08 A2989 RMK AO2 SNE09 P0000 T10281078
KMKG 101155Z 24009KT 9SM -SN SCT024 BKN070 OVC085 M03/M08 A2989 RMK AO2 SNB32 CIG 055 RWY 14 SLP130 4/006 P0000 60000 70005 T10281083 11028 21033 56013
KMKG 101112Z 25011KT 10SM FEW024 OVC060 M03/M08 A2990 RMK AO2 T10281083
KMKG 101055Z 26010KT 10SM BKN024 OVC060 M03/M09 A2990 RMK AO2 SLP134 T10281089